createdAt,value
2018-03-15T00:02:27.368Z,8.60
2018-03-15T00:04:53.667Z,8.37
2018-03-15T00:07:19.935Z,8.97
2018-03-15T00:09:46.302Z,8.63
2018-03-15T00:12:12.528Z,8.50
2018-03-15T00:14:38.937Z,8.87
2018-03-15T00:17:05.185Z,7.97
2018-03-15T00:19:31.420Z,8.63
2018-03-15T00:21:58.100Z,8.57
2018-03-15T00:24:24.452Z,8.40
2018-03-15T00:26:50.688Z,8.57
2018-03-15T00:29:17.140Z,7.67
2018-03-15T00:31:43.364Z,9.70
2018-03-15T00:34:09.856Z,8.17
2018-03-15T00:36:36.113Z,8.83
2018-03-15T00:39:02.641Z,8.57
2018-03-15T00:41:28.941Z,7.40
2018-03-15T00:43:55.356Z,8.23
2018-03-15T00:46:21.769Z,8.17
2018-03-15T00:48:47.984Z,8.50
2018-03-15T00:51:14.494Z,7.93
2018-03-15T00:53:40.723Z,7.50
2018-03-15T00:56:07.212Z,7.90
2018-03-15T00:58:33.537Z,7.57
2018-03-15T01:01:00.060Z,7.27
2018-03-15T01:03:26.374Z,7.67
2018-03-15T01:05:52.968Z,8.23
2018-03-15T01:08:19.193Z,7.97
2018-03-15T01:10:45.412Z,8.40
2018-03-15T01:13:11.648Z,7.07
2018-03-15T01:15:37.869Z,8.17
2018-03-15T01:18:04.095Z,7.23
2018-03-15T01:20:30.338Z,7.43
2018-03-15T01:22:56.567Z,7.43
2018-03-15T01:25:22.778Z,8.80
2018-03-15T01:27:49.011Z,7.97
2018-03-15T01:30:15.228Z,7.80
2018-03-15T01:32:41.443Z,7.67
2018-03-15T01:35:07.714Z,8.43
2018-03-15T01:37:33.936Z,8.23
2018-03-15T01:40:00.197Z,8.27
2018-03-15T01:42:26.439Z,9.33
2018-03-15T01:44:52.668Z,8.93
2018-03-15T01:47:18.888Z,8.40
2018-03-15T01:49:45.135Z,8.17
2018-03-15T01:52:11.358Z,8.83
2018-03-15T01:54:37.580Z,8.13
2018-03-15T01:57:03.840Z,7.80
2018-03-15T01:59:30.061Z,8.57
2018-03-15T02:01:56.323Z,8.03
2018-03-15T02:04:22.548Z,8.83
2018-03-15T02:06:48.755Z,8.73
2018-03-15T02:09:15.021Z,8.20
2018-03-15T02:11:41.292Z,7.70
2018-03-15T02:14:07.525Z,8.83
2018-03-15T02:16:33.741Z,8.23
2018-03-15T02:18:59.987Z,7.67
2018-03-15T02:21:26.224Z,7.90
2018-03-15T02:23:52.455Z,7.70
2018-03-15T02:26:18.706Z,7.57
2018-03-15T02:28:44.942Z,7.27
2018-03-15T02:31:11.162Z,7.47
2018-03-15T02:33:37.413Z,7.03
2018-03-15T02:36:03.652Z,6.97
2018-03-15T02:38:29.895Z,7.03
2018-03-15T02:40:56.148Z,7.37
2018-03-15T02:43:22.372Z,8.03
2018-03-15T02:45:48.592Z,7.10
2018-03-15T02:48:14.838Z,7.37
2018-03-15T02:50:41.050Z,6.73
2018-03-15T02:53:07.335Z,6.90
2018-03-15T02:55:33.552Z,7.23
2018-03-15T02:58:00.925Z,7.17
2018-03-15T03:00:27.140Z,7.37
2018-03-15T03:02:53.376Z,6.70
2018-03-15T03:05:19.602Z,6.77
2018-03-15T03:07:45.826Z,7.43
2018-03-15T03:10:12.064Z,7.90
2018-03-15T03:12:38.276Z,8.93
2018-03-15T03:15:04.488Z,7.27
2018-03-15T03:17:30.825Z,8.20
2018-03-15T03:19:57.032Z,7.87
2018-03-15T03:22:23.240Z,7.83
2018-03-15T03:24:49.480Z,7.50
2018-03-15T03:27:15.708Z,7.43
2018-03-15T03:29:41.920Z,7.37
2018-03-15T03:32:08.172Z,7.20
2018-03-15T03:34:34.411Z,7.60
2018-03-15T03:37:00.648Z,6.80
2018-03-15T03:39:26.893Z,7.43
2018-03-15T03:41:53.140Z,7.50
2018-03-15T03:44:19.375Z,6.97
2018-03-15T03:46:45.587Z,8.27
2018-03-15T03:49:11.824Z,8.40
2018-03-15T03:51:38.041Z,8.13
2018-03-15T03:54:04.300Z,7.30
2018-03-15T03:56:30.516Z,8.10
2018-03-15T03:58:56.723Z,8.27
2018-03-15T04:01:22.956Z,7.87
2018-03-15T04:03:49.167Z,7.87
2018-03-15T04:06:15.404Z,7.30
2018-03-15T04:08:41.620Z,7.43
2018-03-15T04:11:07.859Z,7.13
2018-03-15T04:13:34.099Z,7.20
2018-03-15T04:16:00.336Z,7.07
2018-03-15T04:18:26.549Z,7.53
2018-03-15T04:20:52.808Z,7.67
2018-03-15T04:23:19.035Z,7.80
2018-03-15T04:25:45.258Z,7.90
2018-03-15T04:28:11.491Z,7.47
2018-03-15T04:30:37.729Z,7.23
2018-03-15T04:33:03.960Z,8.20
2018-03-15T04:35:30.180Z,7.73
2018-03-15T04:37:56.415Z,6.87
2018-03-15T04:40:22.669Z,6.67
2018-03-15T04:42:48.895Z,8.10
2018-03-15T04:45:15.113Z,7.30
2018-03-15T04:47:41.413Z,7.40
2018-03-15T04:50:07.625Z,7.43
2018-03-15T04:52:33.908Z,7.87
2018-03-15T04:55:00.149Z,6.93
2018-03-15T04:57:26.372Z,6.70
2018-03-15T04:59:52.608Z,7.70
2018-03-15T05:02:18.835Z,7.70
2018-03-15T05:04:45.077Z,7.37
2018-03-15T05:07:11.316Z,7.30
2018-03-15T05:09:37.571Z,7.27
2018-03-15T05:12:03.833Z,7.17
2018-03-15T05:14:30.119Z,7.53
2018-03-15T05:16:56.328Z,7.50
2018-03-15T05:19:22.578Z,6.90
2018-03-15T05:21:48.859Z,6.20
2018-03-15T05:24:15.065Z,7.73
2018-03-15T05:26:41.325Z,7.13
2018-03-15T05:29:07.545Z,7.13
2018-03-15T05:31:33.816Z,6.93
2018-03-15T05:34:00.068Z,8.07
2018-03-15T05:36:26.315Z,7.93
2018-03-15T05:38:52.553Z,8.17
2018-03-15T05:41:18.785Z,7.07
2018-03-15T05:43:45.053Z,9.43
2018-03-15T05:46:11.321Z,7.10
2018-03-15T05:48:37.618Z,6.83
2018-03-15T05:51:03.945Z,7.47
2018-03-15T05:53:30.222Z,7.40
2018-03-15T05:55:56.473Z,7.00
2018-03-15T05:58:22.735Z,7.40
2018-03-15T06:00:49.025Z,7.60
2018-03-15T06:03:15.276Z,7.60
2018-03-15T06:05:41.523Z,6.13
2018-03-15T06:08:07.740Z,7.30
2018-03-15T06:10:33.968Z,7.40
2018-03-15T06:13:00.180Z,7.00
2018-03-15T06:15:26.414Z,8.03
2018-03-15T06:17:52.632Z,7.90
2018-03-15T06:20:18.861Z,8.07
2018-03-15T06:22:45.077Z,8.13
2018-03-15T06:25:11.308Z,8.57
2018-03-15T06:27:37.521Z,14.13
2018-03-15T06:30:03.793Z,14.13
2018-03-15T06:32:30.030Z,13.00
2018-03-15T06:34:56.257Z,8.43
2018-03-15T06:37:22.493Z,9.20
2018-03-15T06:39:48.716Z,7.97
2018-03-15T06:42:14.945Z,10.17
2018-03-15T06:44:41.165Z,9.27
2018-03-15T06:47:07.417Z,9.73
2018-03-15T06:49:33.632Z,10.17
2018-03-15T06:51:59.872Z,9.10
2018-03-15T06:54:26.080Z,10.10
2018-03-15T06:56:52.304Z,9.37
2018-03-15T06:59:18.541Z,10.13
2018-03-15T07:01:44.751Z,10.90
2018-03-15T07:04:11.029Z,10.73
2018-03-15T07:06:37.244Z,10.03
2018-03-15T07:09:03.532Z,9.60
2018-03-15T07:11:29.738Z,10.13
2018-03-15T07:13:55.968Z,9.97
2018-03-15T07:16:22.192Z,10.00
2018-03-15T07:18:48.481Z,13.50
2018-03-15T07:21:14.701Z,17.53
2018-03-15T07:23:40.928Z,15.47
2018-03-15T07:26:07.167Z,11.23
2018-03-15T07:28:33.404Z,9.97
2018-03-15T07:30:59.636Z,9.80
2018-03-15T07:33:25.856Z,9.70
2018-03-15T07:35:52.096Z,11.17
2018-03-15T07:38:18.313Z,9.90
2018-03-15T07:40:44.548Z,10.03
2018-03-15T07:43:10.783Z,10.77
2018-03-15T07:45:37.031Z,9.10
2018-03-15T07:48:03.428Z,10.13
2018-03-15T07:50:29.696Z,9.53
2018-03-15T07:52:55.961Z,9.23
2018-03-15T07:55:22.229Z,9.97
2018-03-15T07:57:48.481Z,9.93
2018-03-15T08:00:14.715Z,10.30
2018-03-15T08:02:40.952Z,10.47
2018-03-15T08:05:07.176Z,10.77
2018-03-15T08:07:33.407Z,9.60
2018-03-15T08:09:59.607Z,9.43
2018-03-15T08:12:25.836Z,10.00
2018-03-15T08:14:52.043Z,10.50
2018-03-15T08:17:18.273Z,10.67
2018-03-15T08:19:44.484Z,10.17
2018-03-15T08:22:10.739Z,10.13
2018-03-15T08:24:37.380Z,10.27
2018-03-15T08:27:03.812Z,10.47
2018-03-15T08:29:30.115Z,9.90
2018-03-15T08:31:56.456Z,9.77
2018-03-15T08:34:22.907Z,10.07
2018-03-15T08:36:49.133Z,10.83
2018-03-15T08:39:15.563Z,10.60
2018-03-15T08:41:41.776Z,9.87
2018-03-15T08:44:08.326Z,10.30
2018-03-15T08:46:34.611Z,15.17
2018-03-15T08:49:01.092Z,11.37
2018-03-15T08:51:27.435Z,10.60
2018-03-15T08:53:53.718Z,11.63
2018-03-15T08:56:20.069Z,12.87
2018-03-15T08:58:46.432Z,11.10
2018-03-15T09:01:12.904Z,11.27
2018-03-15T09:03:39.168Z,11.10
2018-03-15T09:06:05.451Z,11.57
2018-03-15T09:08:31.689Z,12.23
2018-03-15T09:10:58.311Z,11.60
2018-03-15T09:13:24.843Z,12.73
2018-03-15T09:15:51.136Z,11.97
2018-03-15T09:18:17.671Z,11.53
2018-03-15T09:20:43.896Z,12.43
2018-03-15T09:23:10.272Z,13.07
2018-03-15T09:25:36.535Z,13.10
2018-03-15T09:28:03.101Z,11.60
2018-03-15T09:30:29.500Z,12.47
2018-03-15T09:32:55.777Z,12.13
2018-03-15T09:35:22.328Z,13.23
2018-03-15T09:37:48.609Z,13.30
2018-03-15T09:40:15.059Z,12.33
2018-03-15T09:42:41.432Z,14.13
2018-03-15T09:45:07.796Z,15.03
2018-03-15T09:47:34.131Z,14.57
2018-03-15T09:50:00.429Z,14.00
2018-03-15T09:52:26.801Z,15.00
2018-03-15T09:54:53.130Z,14.63
2018-03-15T09:57:19.754Z,15.93
2018-03-15T09:59:46.049Z,15.53
2018-03-15T10:02:12.311Z,16.10
2018-03-15T10:04:38.596Z,16.80
2018-03-15T10:07:04.897Z,15.40
2018-03-15T10:09:31.131Z,19.57
2018-03-15T10:11:57.404Z,16.40
2018-03-15T10:14:23.636Z,16.87
2018-03-15T10:16:50.263Z,15.53
2018-03-15T10:19:16.504Z,15.90
2018-03-15T10:21:42.768Z,15.47
2018-03-15T10:24:09.011Z,15.13
2018-03-15T10:26:35.315Z,14.03
2018-03-15T10:29:01.580Z,14.33
2018-03-15T10:31:27.825Z,14.43
2018-03-15T10:33:54.092Z,14.03
2018-03-15T10:36:20.344Z,13.67
2018-03-15T10:38:46.595Z,11.40
2018-03-15T10:41:12.916Z,10.97
2018-03-15T10:43:39.148Z,10.17
2018-03-15T10:46:05.410Z,10.13
2018-03-15T10:48:31.664Z,11.10
2018-03-15T10:50:57.932Z,16.27
2018-03-15T10:53:24.228Z,10.40
2018-03-15T10:55:50.493Z,11.93
2018-03-15T10:58:16.728Z,10.53
2018-03-15T11:00:49.016Z,9.27
2018-03-15T11:03:17.091Z,8.60
2018-03-15T11:05:46.453Z,8.40
2018-03-15T11:08:18.807Z,9.97
2018-03-15T11:10:45.099Z,9.77
2018-03-15T11:13:11.335Z,8.83
2018-03-15T11:15:37.613Z,12.27
2018-03-15T11:18:03.892Z,9.50
2018-03-15T11:20:30.128Z,9.70
2018-03-15T11:22:56.428Z,9.00
2018-03-15T11:25:22.703Z,9.10
2018-03-15T11:27:49.009Z,9.20
2018-03-15T11:30:15.248Z,9.10
2018-03-15T11:32:41.510Z,8.93
2018-03-15T11:35:07.755Z,9.13
2018-03-15T11:37:34.017Z,9.43
2018-03-15T11:40:00.256Z,8.87
2018-03-15T11:42:26.568Z,9.33
2018-03-15T11:44:52.816Z,9.07
2018-03-15T11:47:19.067Z,10.70
2018-03-15T11:49:45.323Z,9.57
2018-03-15T11:52:11.559Z,8.87
2018-03-15T11:54:37.853Z,9.43
2018-03-15T11:57:04.168Z,8.97
2018-03-15T11:59:30.415Z,9.47
2018-03-15T12:01:56.655Z,8.73
2018-03-15T12:04:22.920Z,8.80
2018-03-15T12:06:49.165Z,9.07
2018-03-15T12:09:15.420Z,8.63
2018-03-15T12:11:41.688Z,9.33
2018-03-15T12:14:07.940Z,9.13
2018-03-15T12:16:34.212Z,9.90
2018-03-15T12:19:00.459Z,9.73
2018-03-15T12:21:27.338Z,10.27
2018-03-15T12:23:53.620Z,9.70
2018-03-15T12:26:19.864Z,9.63
2018-03-15T12:28:46.121Z,10.33
2018-03-15T12:31:12.344Z,10.27
2018-03-15T12:33:38.581Z,12.13
2018-03-15T12:36:04.819Z,10.20
2018-03-15T12:38:31.051Z,10.27
2018-03-15T12:40:57.282Z,9.25
2018-03-15T12:43:23.511Z,10.23
2018-03-15T12:45:49.771Z,9.93
2018-03-15T12:48:15.985Z,9.88
2018-03-15T12:50:42.229Z,9.52
2018-03-15T12:53:08.487Z,10.07
2018-03-15T12:55:34.736Z,9.57
2018-03-15T12:58:00.949Z,9.35
2018-03-15T13:00:27.202Z,10.70
2018-03-15T13:02:53.464Z,9.67
2018-03-15T13:05:19.704Z,10.07
2018-03-15T13:07:45.940Z,9.93
2018-03-15T13:10:12.200Z,10.00
2018-03-15T13:12:38.427Z,10.27
2018-03-15T13:15:04.668Z,12.70
2018-03-15T13:17:30.906Z,9.83
2018-03-15T13:19:57.156Z,10.53
2018-03-15T13:22:23.393Z,10.33
2018-03-15T13:24:49.616Z,10.53
2018-03-15T13:27:15.848Z,9.27
2018-03-15T13:29:42.071Z,8.90
2018-03-15T13:32:08.304Z,9.53
2018-03-15T13:34:34.553Z,10.30
2018-03-15T13:37:00.796Z,9.93
2018-03-15T13:39:27.013Z,10.40
2018-03-15T13:41:53.248Z,10.67
2018-03-15T13:44:19.496Z,10.37
2018-03-15T13:46:45.724Z,11.17
2018-03-15T13:49:11.977Z,11.10
2018-03-15T13:51:38.200Z,10.47
2018-03-15T13:54:04.504Z,10.17
2018-03-15T13:56:30.732Z,10.80
2018-03-15T13:58:56.990Z,10.23
2018-03-15T14:01:23.269Z,10.87
2018-03-15T14:03:49.508Z,10.43
2018-03-15T14:06:15.740Z,10.70
2018-03-15T14:08:41.999Z,10.93
2018-03-15T14:11:08.220Z,10.60
2018-03-15T14:13:34.456Z,11.00
2018-03-15T14:16:00.688Z,10.30
2018-03-15T14:18:26.908Z,10.93
2018-03-15T14:20:53.152Z,9.97
2018-03-15T14:23:19.407Z,10.40
2018-03-15T14:25:45.628Z,9.60
2018-03-15T14:28:11.839Z,10.03
2018-03-15T14:30:38.076Z,10.67
2018-03-15T14:33:04.320Z,11.43
2018-03-15T14:35:30.569Z,10.90
2018-03-15T14:37:56.791Z,10.67
2018-03-15T14:40:23.021Z,9.90
2018-03-15T14:42:49.267Z,10.50
2018-03-15T14:45:15.520Z,11.30
2018-03-15T14:47:41.779Z,9.63
2018-03-15T14:50:07.996Z,9.13
2018-03-15T14:52:34.240Z,9.03
2018-03-15T14:55:00.480Z,10.60
2018-03-15T14:57:26.716Z,10.13
2018-03-15T14:59:52.944Z,10.47
2018-03-15T15:02:19.208Z,10.33
2018-03-15T15:04:45.424Z,11.17
2018-03-15T15:07:11.647Z,11.20
2018-03-15T15:09:37.892Z,10.23
2018-03-15T15:12:04.108Z,9.80
2018-03-15T15:14:30.356Z,10.20
2018-03-15T15:16:56.618Z,9.13
2018-03-15T15:19:22.896Z,9.63
2018-03-15T15:21:49.123Z,9.80
2018-03-15T15:24:15.369Z,9.57
2018-03-15T15:26:41.597Z,9.83
2018-03-15T15:29:07.897Z,9.47
2018-03-15T15:31:34.185Z,9.70
2018-03-15T15:34:00.438Z,11.33
2018-03-15T15:36:26.668Z,9.60
2018-03-15T15:38:52.893Z,10.43
2018-03-15T15:41:19.174Z,11.00
2018-03-15T15:43:45.410Z,10.23
2018-03-15T15:46:11.661Z,10.03
2018-03-15T15:48:37.880Z,10.10
2018-03-15T15:51:04.128Z,10.47
2018-03-15T15:53:30.432Z,9.43
2018-03-15T15:55:56.652Z,9.10
2018-03-15T15:58:22.885Z,10.13
2018-03-15T16:00:49.101Z,8.87
2018-03-15T16:03:15.344Z,9.13
2018-03-15T16:05:41.604Z,8.47
2018-03-15T16:08:07.864Z,9.17
2018-03-15T16:10:34.129Z,9.23
2018-03-15T16:13:00.379Z,9.87
2018-03-15T16:15:26.601Z,9.87
2018-03-15T16:17:52.875Z,9.60
2018-03-15T16:20:19.116Z,8.60
2018-03-15T16:22:45.360Z,9.50
2018-03-15T16:25:11.604Z,9.03
2018-03-15T16:27:37.837Z,9.37
2018-03-15T16:30:04.137Z,9.03
2018-03-15T16:32:30.360Z,8.97
2018-03-15T16:34:56.620Z,8.87
2018-03-15T16:37:22.855Z,8.57
2018-03-15T16:39:49.108Z,8.93
2018-03-15T16:42:15.368Z,9.40
2018-03-15T16:44:41.646Z,8.67
2018-03-15T16:47:07.902Z,8.27
2018-03-15T16:49:34.125Z,8.43
2018-03-15T16:52:00.370Z,8.70
2018-03-15T16:54:26.621Z,8.13
2018-03-15T16:56:52.876Z,7.83
2018-03-15T16:59:19.108Z,9.43
2018-03-15T17:01:45.378Z,8.43
2018-03-15T17:04:11.609Z,7.97
2018-03-15T17:06:37.850Z,8.50
2018-03-15T17:09:04.132Z,8.87
2018-03-15T17:11:30.434Z,8.77
2018-03-15T17:13:56.705Z,8.93
2018-03-15T17:16:22.928Z,10.03
2018-03-15T17:18:49.205Z,9.93
2018-03-15T17:21:15.471Z,8.80
2018-03-15T17:23:44.236Z,8.67
2018-03-15T17:26:10.508Z,9.07
2018-03-15T17:28:36.828Z,8.77
2018-03-15T17:31:03.246Z,8.83
2018-03-15T17:33:29.484Z,8.80
2018-03-15T17:35:56.001Z,9.20
2018-03-15T17:38:22.400Z,9.57
2018-03-15T17:40:48.745Z,9.10
2018-03-15T17:43:14.967Z,8.97
2018-03-15T17:45:41.312Z,8.83
2018-03-15T17:48:07.630Z,10.87
2018-03-15T17:50:33.927Z,9.60
2018-03-15T17:53:00.240Z,8.87
2018-03-15T17:55:26.528Z,8.30
2018-03-15T17:57:52.764Z,9.73
2018-03-15T18:00:19.008Z,10.37
2018-03-15T18:02:45.293Z,8.83
2018-03-15T18:05:11.542Z,9.10
2018-03-15T18:07:37.797Z,9.87
2018-03-15T18:10:04.393Z,9.47
2018-03-15T18:12:30.819Z,11.53
2018-03-15T18:14:57.097Z,8.87
2018-03-15T18:17:23.639Z,8.57
2018-03-15T18:19:49.952Z,9.43
2018-03-15T18:22:16.302Z,9.20
2018-03-15T18:24:42.730Z,9.40
2018-03-15T18:27:08.969Z,8.83
2018-03-15T18:29:35.361Z,9.07
2018-03-15T18:32:01.636Z,8.90
2018-03-15T18:34:28.115Z,8.60
2018-03-15T18:36:54.496Z,8.57
2018-03-15T18:39:21.018Z,8.80
2018-03-15T18:41:47.311Z,8.43
2018-03-15T18:44:13.571Z,8.73
2018-03-15T18:46:39.874Z,9.07
2018-03-15T18:49:06.161Z,7.97
2018-03-15T18:51:32.392Z,9.33
2018-03-15T18:53:58.682Z,8.67
2018-03-15T18:56:24.936Z,8.23
2018-03-15T18:58:51.204Z,9.00
2018-03-15T19:01:17.532Z,8.37
2018-03-15T19:03:43.785Z,8.33
2018-03-15T19:06:10.105Z,8.70
2018-03-15T19:08:36.401Z,8.27
2018-03-15T19:11:02.648Z,8.90
2018-03-15T19:13:28.920Z,10.47
2018-03-15T19:15:55.202Z,8.80
2018-03-15T19:18:21.453Z,8.93
2018-03-15T19:20:47.718Z,9.50
2018-03-15T19:23:14.640Z,10.83
2018-03-15T19:25:40.921Z,9.27
2018-03-15T19:28:07.175Z,10.20
2018-03-15T19:30:33.460Z,8.53
2018-03-15T19:32:59.692Z,8.53
2018-03-15T19:35:25.957Z,9.00
2018-03-15T19:37:52.274Z,9.60
2018-03-15T19:40:18.501Z,9.77
2018-03-15T19:42:44.759Z,9.10
2018-03-15T19:45:11.016Z,9.17
2018-03-15T19:47:37.303Z,10.43
2018-03-15T19:50:03.606Z,10.23
2018-03-15T19:52:29.882Z,10.23
2018-03-15T19:54:56.117Z,9.47
2018-03-15T19:57:22.365Z,9.07
2018-03-15T19:59:48.630Z,9.60
2018-03-15T20:02:14.902Z,9.40
2018-03-15T20:04:41.179Z,10.53
2018-03-15T20:07:07.476Z,12.63
2018-03-15T20:09:33.744Z,9.50
2018-03-15T20:11:59.990Z,9.97
2018-03-15T20:14:26.256Z,9.93
2018-03-15T20:16:52.497Z,10.17
2018-03-15T20:19:18.819Z,10.10
2018-03-15T20:21:45.129Z,9.63
2018-03-15T20:24:17.423Z,9.80
2018-03-15T20:26:43.661Z,10.60
2018-03-15T20:29:09.877Z,9.97
2018-03-15T20:31:36.164Z,11.23
2018-03-15T20:34:08.437Z,11.07
2018-03-15T20:36:34.692Z,11.30
2018-03-15T20:39:01.105Z,10.47
2018-03-15T20:41:27.409Z,11.17
2018-03-15T20:43:53.752Z,12.00
2018-03-15T20:46:25.932Z,12.00
2018-03-15T20:48:58.426Z,10.90
2018-03-15T20:51:24.845Z,11.23
2018-03-15T20:53:51.096Z,10.43
2018-03-15T20:56:17.347Z,10.67
2018-03-15T20:58:43.620Z,11.00
2018-03-15T21:01:10.048Z,11.47
2018-03-15T21:03:36.448Z,10.33
2018-03-15T21:06:02.690Z,11.40
2018-03-15T21:08:28.938Z,10.93
2018-03-15T21:10:55.277Z,11.20
2018-03-15T21:13:21.522Z,10.93
2018-03-15T21:15:48.048Z,11.13
2018-03-15T21:18:14.373Z,10.53
2018-03-15T21:20:40.911Z,11.10
2018-03-15T21:23:07.310Z,11.00
2018-03-15T21:25:33.536Z,11.17
2018-03-15T21:27:59.809Z,11.40
2018-03-15T21:30:26.072Z,12.87
2018-03-15T21:32:54.687Z,11.43
2018-03-15T21:35:20.920Z,11.93
2018-03-15T21:37:47.152Z,12.03
2018-03-15T21:40:13.392Z,11.70
2018-03-15T21:42:39.645Z,11.37
2018-03-15T21:45:06.029Z,11.87
2018-03-15T21:47:32.291Z,11.97
2018-03-15T21:49:58.526Z,12.50
2018-03-15T21:52:24.980Z,12.70
2018-03-15T21:54:51.200Z,12.53
2018-03-15T21:57:17.412Z,12.83
2018-03-15T21:59:43.664Z,13.57
2018-03-15T22:02:09.887Z,12.33
2018-03-15T22:04:36.377Z,12.40
2018-03-15T22:07:02.636Z,12.50
2018-03-15T22:09:28.870Z,31.33
2018-03-15T22:11:55.176Z,37.30
2018-03-15T22:14:21.411Z,13.50
2018-03-15T22:16:47.699Z,13.00
2018-03-15T22:19:13.980Z,12.87
2018-03-15T22:21:40.221Z,12.87
2018-03-15T22:24:06.644Z,12.43
2018-03-15T22:26:32.901Z,12.77
2018-03-15T22:28:59.164Z,12.60
2018-03-15T22:31:25.404Z,13.03
2018-03-15T22:33:51.637Z,12.80
2018-03-15T22:36:18.007Z,12.57
2018-03-15T22:38:44.248Z,12.77
2018-03-15T22:41:10.468Z,11.37
2018-03-15T22:43:36.891Z,12.67
2018-03-15T22:46:03.164Z,12.37
2018-03-15T22:48:29.402Z,12.20
2018-03-15T22:50:55.668Z,12.50
2018-03-15T22:53:21.905Z,12.27
2018-03-15T22:55:48.297Z,12.87
2018-03-15T22:58:14.552Z,12.83
2018-03-15T23:00:40.783Z,13.40
2018-03-15T23:03:07.140Z,14.57
2018-03-15T23:05:33.376Z,14.20
2018-03-15T23:07:59.667Z,13.83
2018-03-15T23:10:25.923Z,14.70
2018-03-15T23:12:52.156Z,15.40
2018-03-15T23:15:18.547Z,15.23
2018-03-15T23:17:44.769Z,15.83
2018-03-15T23:20:11.050Z,14.93
2018-03-15T23:22:37.330Z,16.40
2018-03-15T23:25:03.612Z,15.87
2018-03-15T23:27:30.245Z,16.00
2018-03-15T23:29:56.492Z,17.50
2018-03-15T23:32:22.732Z,16.10
2018-03-15T23:34:49.082Z,16.47
2018-03-15T23:37:15.334Z,16.33
2018-03-15T23:39:41.583Z,16.40
2018-03-15T23:42:07.837Z,17.83
2018-03-15T23:44:34.062Z,19.40
2018-03-15T23:47:00.304Z,17.80
2018-03-15T23:49:26.529Z,19.40
2018-03-15T23:51:52.754Z,18.23
2018-03-15T23:54:19.132Z,19.07
2018-03-15T23:56:45.365Z,18.00
2018-03-15T23:59:11.674Z,19.53
